Time;durP1;ratioP1;P1;durP2;ratioP2;P2;SDS_P1;SDS_P2;PMS_P1;PMS_P2;Temp;Humidity;BMP_temperature;BMP_pressure;BME280_temperature;BME280_humidity;BME280_pressure;Samples;Min_cycle;Max_cycle;Signal;HPM_P1;HPM_P2
2023/05/04 00:01:56;;;;;;;7.88;2.30;;;9.30;99.90;;;;;;5096085;28;20020;-70
2023/05/04 00:04:25;;;;;;;7.57;2.60;;;9.30;99.90;;;;;;5094610;28;20048;-71
2023/05/04 00:06:51;;;;;;;6.55;2.63;;;9.30;99.90;;;;;;5093560;28;20121;-71
2023/05/04 00:09:22;;;;;;;10.45;2.55;;;9.30;99.90;;;;;;5098453;28;20055;-70
2023/05/04 00:11:48;;;;;;;6.38;2.45;;;9.20;99.90;;;;;;5095848;28;20126;-70
2023/05/04 00:14:16;;;;;;;3.88;2.15;;;9.20;99.90;;;;;;5095729;28;20027;-70
2023/05/04 00:16:42;;;;;;;6.75;2.70;;;9.20;99.90;;;;;;5095215;28;20043;-71
2023/05/04 00:19:08;;;;;;;12.95;2.53;;;9.20;99.90;;;;;;5098740;27;20031;-71
2023/05/04 00:21:34;;;;;;;5.25;2.70;;;9.20;99.90;;;;;;5094255;28;20038;-70
2023/05/04 00:24:01;;;;;;;7.28;3.15;;;9.20;99.90;;;;;;5093378;28;20036;-70
2023/05/04 00:26:27;;;;;;;3.95;2.38;;;9.10;99.90;;;;;;5086243;28;20035;-70
2023/05/04 00:28:55;;;;;;;8.45;3.42;;;9.10;99.90;;;;;;5085023;28;20096;-70
2023/05/04 00:31:21;;;;;;;6.00;2.70;;;9.10;99.90;;;;;;5088983;28;20059;-70
2023/05/04 00:33:46;;;;;;;8.32;2.78;;;9.10;99.90;;;;;;5086128;28;20051;-70
2023/05/04 00:36:15;;;;;;;8.07;3.00;;;9.10;99.90;;;;;;5089813;28;20059;-71
2023/05/04 00:38:50;;;;;;;4.82;2.70;;;9.00;99.90;;;;;;5089886;27;20028;-70
2023/05/04 00:41:17;;;;;;;5.20;2.75;;;9.00;99.90;;;;;;5094637;28;20047;-70
2023/05/04 00:43:46;;;;;;;5.28;2.97;;;9.00;99.90;;;;;;5093393;28;20066;-70
2023/05/04 00:46:22;;;;;;;5.72;2.65;;;9.00;99.90;;;;;;5090885;28;20040;-70
2023/05/04 00:48:51;;;;;;;12.00;3.35;;;9.10;99.90;;;;;;5092390;28;20115;-71
2023/05/04 00:51:22;;;;;;;4.57;2.65;;;9.00;99.90;;;;;;5087078;28;20042;-71
2023/05/04 00:53:48;;;;;;;12.10;3.45;;;9.00;99.90;;;;;;5084627;28;20116;-71
2023/05/04 00:56:42;;;;;;;5.28;2.92;;;9.00;99.90;;;;;;5087179;28;20507;-70
2023/05/04 00:59:13;;;;;;;6.78;2.90;;;8.90;99.90;;;;;;5080343;28;20039;-70
2023/05/04 01:01:40;;;;;;;9.85;3.10;;;9.00;99.90;;;;;;5086420;28;20531;-70
2023/05/04 01:04:05;;;;;;;7.20;3.55;;;9.00;99.90;;;;;;5091438;28;20051;-71
2023/05/04 01:06:43;;;;;;;9.43;2.75;;;8.90;99.90;;;;;;5093839;28;20189;-70
2023/05/04 01:09:13;;;;;;;6.55;3.40;;;8.80;99.90;;;;;;5081543;28;20839;-70
2023/05/04 01:11:39;;;;;;;4.95;2.97;;;8.90;99.90;;;;;;5092341;28;20039;-70
2023/05/04 01:14:13;;;;;;;10.25;3.45;;;8.80;99.90;;;;;;5095028;28;20047;-71
2023/05/04 01:16:39;;;;;;;5.50;3.22;;;8.80;99.90;;;;;;5092210;28;20028;-71
2023/05/04 01:19:05;;;;;;;8.95;3.22;;;8.80;99.90;;;;;;5094943;28;20376;-70
2023/05/04 01:21:30;;;;;;;9.55;3.45;;;8.80;99.90;;;;;;5093702;28;20052;-70
2023/05/04 01:23:57;;;;;;;7.10;3.08;;;8.80;99.90;;;;;;5094492;28;20109;-71
2023/05/04 01:26:26;;;;;;;8.40;3.20;;;8.70;99.90;;;;;;5090326;28;20036;-71
2023/05/04 01:28:59;;;;;;;9.43;3.77;;;8.70;99.90;;;;;;5094154;28;20028;-70
2023/05/04 01:31:26;;;;;;;6.82;3.50;;;8.70;99.90;;;;;;5097008;28;20040;-70
2023/05/04 01:33:53;;;;;;;6.72;3.45;;;8.70;99.90;;;;;;5098811;27;20079;-71
2023/05/04 01:36:20;;;;;;;6.97;2.60;;;8.70;99.90;;;;;;5095778;28;20081;-72
2023/05/04 01:38:52;;;;;;;8.95;3.20;;;8.70;99.90;;;;;;5097418;27;20028;-70
2023/05/04 01:41:21;;;;;;;6.75;3.22;;;8.60;99.90;;;;;;5091227;28;20036;-71
2023/05/04 01:43:49;;;;;;;8.18;2.67;;;8.60;99.90;;;;;;5089754;28;20036;-70
2023/05/04 01:46:22;;;;;;;6.63;3.22;;;8.60;99.90;;;;;;5092333;28;20059;-70
2023/05/04 01:48:50;;;;;;;7.32;3.05;;;8.70;99.90;;;;;;5093491;28;20032;-71
2023/05/04 01:51:25;;;;;;;9.50;3.13;;;8.60;99.90;;;;;;5093433;28;20036;-70
2023/05/04 01:53:56;;;;;;;8.55;3.53;;;8.60;99.90;;;;;;5092542;28;20028;-70
2023/05/04 01:56:25;;;;;;;5.20;2.30;;;8.60;99.90;;;;;;5097178;28;20541;-70
2023/05/04 01:58:51;;;;;;;15.02;3.53;;;8.60;99.90;;;;;;5098494;27;20602;-70
2023/05/04 02:01:16;;;;;;;7.10;3.10;;;8.60;99.90;;;;;;5095906;28;20051;-70
2023/05/04 02:03:43;;;;;;;5.25;2.83;;;8.60;99.90;;;;;;5097507;28;20062;-70
2023/05/04 02:06:15;;;;;;;7.97;2.80;;;8.60;99.90;;;;;;5098007;27;20096;-70
2023/05/04 02:08:40;;;;;;;8.45;3.53;;;8.50;99.90;;;;;;5091477;28;20130;-70
2023/05/04 02:11:15;;;;;;;4.95;2.38;;;8.50;99.90;;;;;;5092015;28;20119;-70
2023/05/04 02:13:43;;;;;;;6.07;2.90;;;8.50;99.90;;;;;;5093157;28;20035;-70
2023/05/04 02:16:09;;;;;;;6.15;3.10;;;8.50;99.90;;;;;;5091899;28;20100;-70
2023/05/04 02:18:38;;;;;;;8.77;2.67;;;8.50;99.90;;;;;;5091152;28;20496;-71
2023/05/04 02:21:16;;;;;;;6.85;3.13;;;8.50;99.90;;;;;;5089488;28;20084;-70
2023/05/04 02:23:41;;;;;;;7.35;2.78;;;8.40;99.90;;;;;;5094852;28;20028;-70
2023/05/04 02:26:13;;;;;;;6.00;3.30;;;8.40;99.90;;;;;;5092342;28;20431;-71
2023/05/04 02:28:42;;;;;;;7.22;2.67;;;8.50;99.90;;;;;;5091555;28;20036;-70
2023/05/04 02:31:10;;;;;;;8.55;3.33;;;8.40;99.90;;;;;;5090494;28;20093;-71
2023/05/04 02:33:36;;;;;;;7.30;2.70;;;8.40;99.90;;;;;;5092425;28;20539;-70
2023/05/04 02:36:04;;;;;;;4.20;2.30;;;8.40;99.90;;;;;;5095245;28;20085;-70
2023/05/04 02:38:30;;;;;;;5.03;2.75;;;8.40;99.90;;;;;;5087864;28;20036;-70
2023/05/04 02:40:57;;;;;;;8.77;2.85;;;8.40;99.90;;;;;;5090617;28;20073;-70
2023/05/04 02:43:23;;;;;;;7.15;3.05;;;8.30;99.90;;;;;;5093430;28;20047;-70
2023/05/04 02:45:48;;;;;;;6.32;3.40;;;8.30;99.90;;;;;;5090976;28;20112;-70
2023/05/04 02:48:14;;;;;;;6.53;2.22;;;8.30;99.90;;;;;;5093058;28;20043;-70
2023/05/04 02:50:39;;;;;;;10.13;3.15;;;8.30;99.90;;;;;;5096466;28;20024;-70
2023/05/04 02:53:11;;;;;;;7.85;3.08;;;8.30;99.90;;;;;;5099286;27;20040;-70
2023/05/04 02:55:36;;;;;;;5.03;2.28;;;8.20;99.90;;;;;;5096046;28;20036;-71
2023/05/04 02:58:02;;;;;;;9.55;2.58;;;8.20;99.90;;;;;;5097651;28;20050;-70
2023/05/04 03:00:30;;;;;;;5.63;2.50;;;8.20;99.90;;;;;;5089112;28;20395;-69
2023/05/04 03:02:56;;;;;;;3.92;2.10;;;8.20;99.90;;;;;;5097327;28;20126;-70
2023/05/04 03:05:21;;;;;;;5.80;2.80;;;8.10;99.90;;;;;;5094663;28;20130;-70
2023/05/04 03:07:47;;;;;;;5.47;3.00;;;8.10;99.90;;;;;;5090336;28;20040;-70
2023/05/04 03:10:12;;;;;;;7.88;3.17;;;8.10;99.90;;;;;;5092367;28;20040;-70
2023/05/04 03:12:38;;;;;;;8.30;3.30;;;8.10;99.90;;;;;;5096531;28;20089;-70
2023/05/04 03:15:19;;;;;;;9.55;2.63;;;8.20;99.90;;;;;;5096393;28;20070;-71
2023/05/04 03:17:44;;;;;;;4.93;2.65;;;8.10;99.90;;;;;;5095931;28;20090;-70
2023/05/04 03:20:11;;;;;;;5.78;2.95;;;8.10;99.90;;;;;;5092468;28;20852;-71
2023/05/04 03:22:37;;;;;;;9.75;2.65;;;8.00;99.90;;;;;;5094852;28;20043;-71
2023/05/04 03:25:06;;;;;;;13.45;3.00;;;8.00;99.90;;;;;;5091422;28;20028;-71
2023/05/04 03:27:32;;;;;;;6.80;2.38;;;8.10;99.90;;;;;;5095922;28;20031;-71
2023/05/04 03:30:00;;;;;;;6.63;2.90;;;8.00;99.90;;;;;;5097810;28;20050;-70
2023/05/04 03:32:25;;;;;;;5.32;2.42;;;8.00;99.90;;;;;;5092061;28;20534;-71
2023/05/04 03:34:51;;;;;;;5.32;2.88;;;8.00;99.90;;;;;;5098339;27;20072;-71
2023/05/04 03:37:17;;;;;;;6.85;2.50;;;8.00;99.90;;;;;;5098018;28;20059;-71
2023/05/04 03:39:42;;;;;;;8.23;2.58;;;7.90;99.90;;;;;;5091575;28;20028;-70
2023/05/04 03:42:10;;;;;;;6.43;3.10;;;7.90;99.90;;;;;;5097121;27;20047;-70
2023/05/04 03:44:39;;;;;;;5.40;3.08;;;7.90;99.90;;;;;;5094963;28;20035;-70
2023/05/04 03:47:05;;;;;;;7.60;2.67;;;7.80;99.90;;;;;;5091700;28;20126;-70
2023/05/04 03:49:31;;;;;;;7.72;2.70;;;7.90;99.90;;;;;;5094718;28;20498;-71
2023/05/04 03:51:56;;;;;;;6.82;2.45;;;7.90;99.90;;;;;;5091019;28;20111;-71
2023/05/04 03:54:22;;;;;;;7.43;2.67;;;7.90;99.90;;;;;;5095090;28;20023;-71
2023/05/04 03:56:53;;;;;;;4.95;2.85;;;7.90;99.90;;;;;;5089910;28;20060;-71
2023/05/04 03:59:19;;;;;;;7.43;2.35;;;7.80;99.90;;;;;;5093181;28;20852;-70
2023/05/04 04:01:47;;;;;;;7.38;2.70;;;7.90;99.90;;;;;;5091903;28;20123;-70
2023/05/04 04:04:13;;;;;;;7.05;2.88;;;7.80;99.90;;;;;;5094861;28;20336;-70
2023/05/04 04:06:41;;;;;;;6.60;2.58;;;7.90;99.90;;;;;;5093734;28;20123;-70
2023/05/04 04:09:10;;;;;;;5.60;2.40;;;7.80;99.90;;;;;;5088190;28;20530;-70
2023/05/04 04:11:35;;;;;;;5.38;2.90;;;7.80;99.90;;;;;;5094490;28;20043;-71
2023/05/04 04:14:01;;;;;;;3.45;2.33;;;7.70;99.90;;;;;;5092368;28;20101;-71
2023/05/04 04:16:30;;;;;;;7.95;3.15;;;7.70;99.90;;;;;;5095607;28;20051;-70
2023/05/04 04:19:00;;;;;;;6.95;2.90;;;7.70;99.90;;;;;;5085847;27;20057;-71
2023/05/04 04:21:26;;;;;;;8.35;2.88;;;7.80;99.90;;;;;;5089129;28;20059;-70
2023/05/04 04:23:52;;;;;;;5.55;2.60;;;7.80;99.90;;;;;;5091597;28;20055;-71
2023/05/04 04:26:17;;;;;;;6.78;2.80;;;7.70;99.90;;;;;;5095062;28;20100;-71
2023/05/04 04:28:45;;;;;;;9.70;3.30;;;7.70;99.90;;;;;;5093390;28;20031;-70
2023/05/04 04:31:17;;;;;;;6.75;2.60;;;7.80;99.90;;;;;;5096622;28;20063;-70
2023/05/04 04:33:48;;;;;;;14.23;3.60;;;7.80;99.90;;;;;;5094234;28;20097;-71
2023/05/04 04:36:17;;;;;;;;;;;7.80;99.90;;;;;;5094811;28;20127;-70
2023/05/04 04:38:43;;;;;;;7.13;2.65;;;7.90;99.90;;;;;;5089693;28;20370;-70
2023/05/04 04:41:21;;;;;;;9.57;2.97;;;7.80;99.90;;;;;;5094768;28;20495;-70
2023/05/04 04:43:49;;;;;;;12.50;2.45;;;7.80;99.90;;;;;;5093836;28;20047;-70
2023/05/04 04:46:15;;;;;;;5.97;2.63;;;7.80;99.90;;;;;;5097010;28;20052;-71
2023/05/04 04:48:41;;;;;;;6.72;3.08;;;7.80;99.90;;;;;;5095404;28;20027;-70
2023/05/04 04:51:15;;;;;;;9.10;2.83;;;7.90;99.90;;;;;;5087441;28;20070;-71
2023/05/04 04:53:41;;;;;;;9.70;3.10;;;7.90;99.90;;;;;;5090293;28;20031;-70
2023/05/04 04:56:09;;;;;;;5.43;2.88;;;7.90;99.90;;;;;;5093844;28;20044;-71
2023/05/04 04:58:41;;;;;;;7.50;2.83;;;7.90;99.90;;;;;;5091643;28;20074;-70
2023/05/04 05:01:07;;;;;;;7.47;2.53;;;7.90;99.90;;;;;;5087398;28;20046;-70
2023/05/04 05:03:32;;;;;;;9.10;2.42;;;8.00;99.90;;;;;;5086010;28;20115;-71
2023/05/04 05:06:01;;;;;;;8.45;3.05;;;8.10;99.90;;;;;;5084356;28;20027;-70
2023/05/04 05:08:27;;;;;;;7.55;2.63;;;8.10;99.90;;;;;;5095475;28;20514;-70
2023/05/04 05:10:52;;;;;;;5.28;2.78;;;8.10;99.90;;;;;;5087573;28;20040;-70
2023/05/04 05:13:18;;;;;;;9.07;2.28;;;8.10;99.90;;;;;;5084845;28;20097;-71
2023/05/04 05:15:47;;;;;;;9.05;3.00;;;8.30;99.90;;;;;;5086905;28;20036;-71
2023/05/04 05:18:12;;;;;;;6.80;3.00;;;8.40;99.90;;;;;;5084769;28;20044;-71
2023/05/04 05:20:44;;;;;;;5.80;3.00;;;8.40;99.90;;;;;;5087113;28;20051;-71
2023/05/04 05:23:12;;;;;;;9.18;3.05;;;8.40;99.90;;;;;;5084259;28;20020;-70
2023/05/04 05:25:38;;;;;;;10.07;2.92;;;8.50;99.90;;;;;;5087305;28;20028;-71
2023/05/04 05:28:03;;;;;;;7.50;3.25;;;8.50;99.90;;;;;;5085816;28;20373;-71
2023/05/04 05:30:29;;;;;;;9.23;3.05;;;8.50;99.90;;;;;;5088368;28;20866;-71
2023/05/04 05:32:55;;;;;;;3.88;2.25;;;8.60;99.90;;;;;;5091305;28;20082;-71
2023/05/04 05:35:23;;;;;;;9.35;3.70;;;8.70;99.90;;;;;;5090315;28;20040;-70
2023/05/04 05:37:52;;;;;;;7.38;3.05;;;8.70;99.90;;;;;;5085071;28;20039;-71
2023/05/04 05:40:18;;;;;;;8.05;2.90;;;8.80;99.90;;;;;;5090754;28;20133;-71
2023/05/04 05:42:46;;;;;;;8.73;2.92;;;8.90;99.90;;;;;;5087978;28;20038;-71
2023/05/04 05:45:12;;;;;;;7.65;3.22;;;9.00;99.90;;;;;;5085140;28;20111;-71
2023/05/04 05:47:46;;;;;;;6.82;3.25;;;9.10;99.90;;;;;;5087625;28;20123;-71
2023/05/04 05:50:19;;;;;;;4.50;2.42;;;9.20;99.90;;;;;;5091933;28;20038;-71
2023/05/04 05:52:47;;;;;;;7.60;2.85;;;9.40;99.90;;;;;;5094197;28;20032;-72
2023/05/04 05:55:22;;;;;;;7.38;2.65;;;9.60;99.90;;;;;;5095532;28;20454;-72
2023/05/04 05:57:47;;;;;;;5.20;2.95;;;10.30;99.90;;;;;;5085135;28;20048;-71
2023/05/04 06:00:13;;;;;;;7.45;2.65;;;11.10;99.90;;;;;;5090063;28;20518;-71
2023/05/04 06:02:39;;;;;;;5.90;2.45;;;11.90;99.90;;;;;;5093570;28;20093;-71
2023/05/04 06:05:05;;;;;;;8.63;1.98;;;12.60;99.30;;;;;;5092620;28;20020;-71
2023/05/04 06:07:30;;;;;;;8.88;2.95;;;12.90;98.90;;;;;;5094164;28;20063;-70
2023/05/04 06:09:56;;;;;;;7.43;2.45;;;13.00;97.80;;;;;;5090767;28;20032;-71
2023/05/04 06:12:22;;;;;;;5.45;2.47;;;12.50;98.00;;;;;;5086709;28;20036;-70
2023/05/04 06:14:50;;;;;;;6.70;2.40;;;12.20;98.60;;;;;;5089677;28;20028;-71
2023/05/04 06:17:17;;;;;;;6.70;2.08;;;12.10;98.70;;;;;;5091193;28;20484;-71
2023/05/04 06:19:46;;;;;;;4.32;2.10;;;12.00;99.00;;;;;;5096302;28;20071;-70
2023/05/04 06:22:13;;;;;;;5.57;2.42;;;11.80;99.40;;;;;;5096478;28;20100;-71
2023/05/04 06:24:41;;;;;;;7.82;2.53;;;12.00;99.20;;;;;;5088624;28;20035;-70
2023/05/04 06:27:07;;;;;;;4.43;2.13;;;12.10;98.70;;;;;;5089614;28;20086;-71
2023/05/04 06:29:33;;;;;;;8.88;2.88;;;12.20;99.50;;;;;;5090500;28;20028;-71
2023/05/04 06:32:01;;;;;;;6.38;2.40;;;12.30;98.90;;;;;;5096820;28;20034;-70
2023/05/04 06:34:33;;;;;;;3.65;2.20;;;12.60;99.00;;;;;;5095221;28;20040;-71
2023/05/04 06:36:58;;;;;;;11.10;2.58;;;12.90;98.80;;;;;;5086586;28;20127;-71
2023/05/04 06:39:27;;;;;;;7.80;2.75;;;13.40;98.00;;;;;;5085272;28;20640;-70
2023/05/04 06:41:54;;;;;;;3.70;2.03;;;13.90;97.20;;;;;;5087175;28;20028;-70
2023/05/04 06:44:20;;;;;;;4.28;1.70;;;14.40;96.60;;;;;;5086047;28;20035;-70
2023/05/04 06:46:46;;;;;;;6.32;2.20;;;14.90;95.80;;;;;;5090217;28;20085;-71
2023/05/04 06:49:11;;;;;;;2.88;1.73;;;15.30;95.50;;;;;;5089634;28;20040;-70
2023/05/04 06:51:38;;;;;;;9.10;2.05;;;15.50;94.70;;;;;;5091023;28;20133;-69
2023/05/04 06:54:03;;;;;;;5.50;2.28;;;15.80;94.10;;;;;;5089135;28;20097;-72
2023/05/04 06:56:32;;;;;;;4.90;1.83;;;16.10;94.10;;;;;;5088960;28;20032;-71
2023/05/04 06:59:01;;;;;;;3.15;1.77;;;16.60;93.50;;;;;;5089876;28;20056;-71
2023/05/04 07:01:27;;;;;;;4.65;1.77;;;16.90;92.80;;;;;;5089346;28;20557;-72
2023/05/04 07:03:52;;;;;;;3.60;1.70;;;17.10;93.40;;;;;;5087132;28;20048;-70
2023/05/04 07:06:18;;;;;;;11.95;2.10;;;18.20;92.50;;;;;;5088717;28;20109;-71
2023/05/04 07:08:44;;;;;;;8.20;2.10;;;19.10;90.30;;;;;;5090754;28;20059;-70
2023/05/04 07:11:10;;;;;;;5.40;1.80;;;19.80;90.10;;;;;;5089459;28;20060;-73
2023/05/04 07:13:37;;;;;;;4.03;1.67;;;20.40;87.20;;;;;;5088598;28;20511;-72
2023/05/04 07:16:07;;;;;;;6.28;1.90;;;20.50;85.50;;;;;;5091062;27;20032;-71
2023/05/04 07:18:33;;;;;;;;;;;20.10;85.00;;;;;;5084382;28;20345;-71
2023/05/04 07:20:58;;;;;;;6.75;1.73;;;19.40;86.00;;;;;;5082840;28;19912;-70
2023/05/04 07:23:24;;;;;;;3.67;1.90;;;19.20;87.40;;;;;;5088561;28;20036;-72
2023/05/04 07:25:50;;;;;;;5.50;2.15;;;18.80;86.80;;;;;;5083916;28;20039;-71
2023/05/04 07:28:18;;;;;;;7.40;1.95;;;18.40;89.10;;;;;;5080382;28;20139;-71
2023/05/04 07:30:44;;;;;;;6.72;1.83;;;18.30;88.40;;;;;;5077028;27;21293;-73
2023/05/04 07:33:10;;;;;;;4.20;1.83;;;18.00;89.90;;;;;;5075446;28;20052;-71
2023/05/04 07:35:41;;;;;;;3.35;1.67;;;17.60;89.90;;;;;;5076163;27;20047;-71
2023/05/04 07:38:07;;;;;;;3.92;2.28;;;17.60;89.60;;;;;;5075525;28;21394;-71
2023/05/04 07:40:32;;;;;;;4.68;2.00;;;17.50;89.60;;;;;;5076632;28;20055;-71
2023/05/04 07:42:58;;;;;;;5.60;1.80;;;17.40;90.10;;;;;;5075246;28;20036;-71
2023/05/04 07:45:26;;;;;;;6.32;1.52;;;17.20;90.60;;;;;;5077102;28;20060;-71
2023/05/04 07:47:52;;;;;;;5.43;1.95;;;17.10;90.70;;;;;;5073821;28;20089;-72
2023/05/04 07:50:17;;;;;;;4.68;2.13;;;17.00;91.00;;;;;;5076344;28;20044;-70
2023/05/04 07:52:45;;;;;;;3.00;1.70;;;17.00;90.70;;;;;;5079627;27;20035;-72
2023/05/04 07:55:10;;;;;;;6.30;2.00;;;16.90;91.10;;;;;;5075414;28;20071;-71
2023/05/04 07:57:36;;;;;;;7.97;1.90;;;16.80;90.60;;;;;;5076006;28;20719;-70
2023/05/04 08:00:04;;;;;;;6.38;2.08;;;16.80;90.80;;;;;;5074846;28;20032;-71
2023/05/04 08:02:30;;;;;;;5.60;2.28;;;16.60;91.00;;;;;;5074443;28;20109;-71
2023/05/04 08:05:01;;;;;;;6.07;1.88;;;16.70;91.10;;;;;;5075035;28;20035;-71
2023/05/04 08:07:27;;;;;;;6.20;1.90;;;16.70;90.80;;;;;;5076834;27;20035;-72
2023/05/04 08:09:54;;;;;;;8.07;2.20;;;16.50;90.90;;;;;;5073008;28;20032;-71
2023/05/04 08:12:20;;;;;;;5.30;1.58;;;16.60;91.50;;;;;;5089170;28;20110;-71
2023/05/04 08:14:48;;;;;;;4.13;1.35;;;16.80;90.80;;;;;;5086188;28;20111;-71
2023/05/04 08:17:14;;;;;;;7.95;2.20;;;16.70;91.20;;;;;;5089714;28;20075;-71
2023/05/04 08:19:40;;;;;;;3.80;1.73;;;16.80;91.40;;;;;;5091346;28;20075;-71
2023/05/04 08:22:05;;;;;;;4.00;1.73;;;16.80;91.20;;;;;;5090433;28;20051;-71
2023/05/04 08:24:31;;;;;;;4.38;1.52;;;16.90;91.40;;;;;;5093207;28;20036;-71
2023/05/04 08:27:00;;;;;;;4.70;1.60;;;16.90;91.30;;;;;;5091904;28;20023;-70
2023/05/04 08:29:26;;;;;;;5.83;1.73;;;16.90;91.50;;;;;;5094106;28;20047;-72
2023/05/04 08:31:55;;;;;;;6.78;2.38;;;17.00;91.20;;;;;;5092008;28;20265;-70
2023/05/04 08:34:20;;;;;;;4.05;1.58;;;17.10;91.70;;;;;;5090346;28;20030;-72
2023/05/04 08:36:55;;;;;;;5.90;1.98;;;17.20;90.80;;;;;;5094754;28;20039;-73
2023/05/04 08:39:20;;;;;;;4.40;1.77;;;17.40;90.40;;;;;;5095775;28;20073;-71
2023/05/04 08:41:46;;;;;;;3.33;1.75;;;17.30;90.60;;;;;;5093842;28;20071;-70
2023/05/04 08:44:12;;;;;;;7.13;2.38;;;17.20;90.70;;;;;;5094129;27;20074;-70
2023/05/04 08:46:39;;;;;;;2.63;1.55;;;17.20;91.10;;;;;;5084418;28;20028;-71
2023/05/04 08:49:09;;;;;;;3.90;1.60;;;17.30;91.00;;;;;;5091631;28;20043;-71
2023/05/04 08:51:38;;;;;;;4.15;1.73;;;17.30;91.10;;;;;;5096687;28;20039;-71
2023/05/04 08:54:09;;;;;;;2.35;1.50;;;17.30;90.40;;;;;;5092605;28;20035;-72
2023/05/04 08:56:37;;;;;;;3.95;1.90;;;17.40;90.40;;;;;;5096767;28;20054;-71
2023/05/04 08:59:10;;;;;;;6.28;1.70;;;17.40;91.00;;;;;;5090600;28;20070;-71
2023/05/04 09:01:37;;;;;;;4.40;2.25;;;17.40;90.40;;;;;;5087788;28;20606;-71
2023/05/04 09:04:07;;;;;;;4.03;1.83;;;17.50;90.40;;;;;;5084209;28;20570;-70
2023/05/04 09:06:33;;;;;;;9.75;1.63;;;17.50;90.50;;;;;;5084977;28;20032;-71
2023/05/04 09:09:01;;;;;;;5.85;1.58;;;17.50;90.70;;;;;;5086578;28;20032;-70
2023/05/04 09:11:27;;;;;;;7.15;2.90;;;17.60;90.70;;;;;;5083464;28;20539;-71
2023/05/04 09:13:56;;;;;;;3.15;1.70;;;17.70;90.20;;;;;;5084386;28;20043;-73
2023/05/04 09:16:21;;;;;;;14.82;1.90;;;17.70;90.00;;;;;;5090458;28;20130;-71
2023/05/04 09:18:47;;;;;;;4.75;1.70;;;17.90;90.10;;;;;;5091503;28;20563;-71
2023/05/04 09:21:26;;;;;;;4.10;1.60;;;17.90;90.00;;;;;;5083314;28;20063;-70
2023/05/04 09:23:52;;;;;;;6.55;1.50;;;18.10;89.80;;;;;;5088667;28;20039;-71
2023/05/04 09:26:29;;;;;;;4.75;1.50;;;18.20;89.90;;;;;;5083667;28;20054;-71
2023/05/04 09:29:31;;;;;;;11.70;1.30;;;18.30;88.60;;;;;;5082980;28;20046;-70
2023/05/04 09:31:57;;;;;;;6.30;1.98;;;18.40;87.90;;;;;;5003668;28;20041;-71
2023/05/04 09:34:22;;;;;;;4.47;1.30;;;18.50;88.30;;;;;;5074495;28;20518;-71
2023/05/04 09:37:01;;;;;;;7.82;1.67;;;18.60;89.10;;;;;;5085795;28;20036;-73
2023/05/04 09:39:33;;;;;;;7.03;1.50;;;18.80;89.70;;;;;;5086731;28;20051;-70
2023/05/04 09:42:03;;;;;;;6.57;1.40;;;18.90;87.30;;;;;;5085974;28;21624;-71
2023/05/04 09:44:29;;;;;;;;;;;19.00;88.00;;;;;;5084198;28;20039;-72
2023/05/04 09:46:58;;;;;;;5.28;1.30;;;19.10;88.80;;;;;;5083306;28;19912;-73
2023/05/04 09:49:34;;;;;;;3.30;1.50;;;19.20;86.40;;;;;;5088234;28;20039;-71
2023/05/04 09:52:04;;;;;;;3.45;1.70;;;19.20;86.10;;;;;;5087202;28;20032;-71
2023/05/04 09:54:33;;;;;;;;;;;19.10;86.30;;;;;;5091119;28;20122;-72
2023/05/04 09:57:10;;;;;;;7.72;1.83;;;19.20;85.90;;;;;;5093755;28;19964;-71
2023/05/04 09:59:36;;;;;;;5.57;1.52;;;19.10;87.50;;;;;;5091665;28;20036;-71
2023/05/04 10:02:03;;;;;;;6.20;1.63;;;19.10;87.40;;;;;;5090906;28;20040;-71
2023/05/04 10:04:33;;;;;;;5.25;1.50;;;19.30;86.20;;;;;;5091174;28;20081;-69
2023/05/04 10:07:05;;;;;;;3.00;1.85;;;19.30;85.60;;;;;;5088229;28;20065;-68
2023/05/04 10:09:32;;;;;;;4.68;1.77;;;19.30;85.80;;;;;;5096828;28;20610;-71
2023/05/04 10:12:04;;;;;;;7.07;2.35;;;19.30;86.70;;;;;;5093055;28;20051;-73
2023/05/04 10:14:36;;;;;;;7.25;1.45;;;19.30;85.80;;;;;;5088269;28;20070;-70
2023/05/04 10:17:07;;;;;;;5.68;2.00;;;19.30;85.40;;;;;;5088205;28;20603;-69
2023/05/04 10:19:54;;;;;;;4.35;2.28;;;19.50;85.70;;;;;;5090443;28;20127;-71
2023/05/04 10:22:31;;;;;;;3.13;1.52;;;19.60;85.80;;;;;;5090537;28;20039;-72
2023/05/04 10:25:33;;;;;;;3.40;1.58;;;19.50;87.20;;;;;;5089204;28;20043;-70
2023/05/04 10:28:18;;;;;;;5.15;1.38;;;19.70;86.10;;;;;;5089192;28;20101;-73
2023/05/04 10:30:44;;;;;;;4.45;1.25;;;19.90;86.00;;;;;;5090527;28;20027;-72
2023/05/04 10:33:09;;;;;;;3.88;1.35;;;19.90;85.60;;;;;;5085713;28;20028;-72
2023/05/04 10:35:36;;;;;;;1.88;1.17;;;19.90;85.30;;;;;;5092023;28;20070;-72
2023/05/04 10:38:05;;;;;;;3.60;1.50;;;20.10;85.20;;;;;;5088209;28;20035;-71
2023/05/04 10:40:33;;;;;;;7.45;2.50;;;20.10;85.60;;;;;;5087434;28;20518;-71
2023/05/04 10:43:02;;;;;;;6.32;1.63;;;20.30;85.90;;;;;;5092560;28;20118;-70
2023/05/04 10:45:38;;;;;;;4.82;1.40;;;20.40;84.60;;;;;;5090798;28;20023;-72
2023/05/04 10:48:05;;;;;;;6.38;1.70;;;20.50;84.40;;;;;;5093380;28;20383;-71
2023/05/04 10:50:44;;;;;;;7.45;1.30;;;20.50;83.60;;;;;;5086106;28;20043;-73
2023/05/04 10:53:15;;;;;;;3.60;1.52;;;20.60;85.90;;;;;;5088513;28;20043;-71
2023/05/04 10:55:47;;;;;;;;;;;20.80;84.30;;;;;;5093034;28;20051;-71
2023/05/04 10:58:27;;;;;;;4.88;1.85;;;20.90;82.10;;;;;;5084905;28;19969;-71
2023/05/04 11:00:53;;;;;;;1.92;1.20;;;20.90;81.50;;;;;;5088565;28;20553;-69
2023/05/04 11:03:21;;;;;;;2.97;1.58;;;20.80;82.20;;;;;;5087912;28;20032;-71
2023/05/04 11:05:53;;;;;;;8.10;1.80;;;20.80;83.10;;;;;;5087456;28;20058;-70
2023/05/04 11:08:20;;;;;;;6.10;1.20;;;20.90;82.40;;;;;;5094535;27;20040;-70
2023/05/04 11:10:47;;;;;;;7.53;1.55;;;21.00;83.90;;;;;;5089425;28;20070;-73
2023/05/04 11:13:14;;;;;;;5.03;1.90;;;21.10;83.80;;;;;;5086325;28;20076;-72
2023/05/04 11:15:48;;;;;;;12.02;1.63;;;21.10;82.80;;;;;;5084663;28;20032;-70
2023/05/04 11:18:14;;;;;;;2.63;1.40;;;21.10;82.40;;;;;;5086642;28;20032;-71
2023/05/04 11:20:41;;;;;;;6.88;2.50;;;21.10;83.00;;;;;;5086869;28;20043;-70
2023/05/04 11:23:09;;;;;;;3.28;1.55;;;21.10;83.70;;;;;;5082905;28;20036;-71
2023/05/04 11:25:36;;;;;;;4.97;1.70;;;21.10;83.50;;;;;;5087900;28;20549;-70
2023/05/04 11:28:02;;;;;;;5.35;1.88;;;21.20;83.60;;;;;;5088608;28;20861;-71
2023/05/04 11:30:32;;;;;;;5.03;2.60;;;21.10;83.40;;;;;;5081270;28;20119;-69
2023/05/04 11:32:59;;;;;;;4.03;1.67;;;21.10;83.80;;;;;;5086587;28;20122;-70
2023/05/04 11:35:31;;;;;;;10.18;2.28;;;20.90;83.60;;;;;;5090445;28;20364;-70
2023/05/04 11:37:59;;;;;;;3.78;1.73;;;21.00;85.90;;;;;;5092879;28;20035;-69
2023/05/04 11:40:26;;;;;;;6.43;1.95;;;21.00;84.10;;;;;;5084559;28;20032;-71
2023/05/04 11:42:53;;;;;;;8.35;2.03;;;21.10;84.60;;;;;;5089951;28;20098;-72
2023/05/04 11:45:23;;;;;;;3.17;1.60;;;21.00;84.90;;;;;;5086559;27;20037;-71
2023/05/04 11:47:50;;;;;;;6.57;1.43;;;21.10;84.80;;;;;;5091788;28;20535;-73
2023/05/04 11:50:20;;;;;;;5.18;1.52;;;21.10;86.90;;;;;;5087515;28;20035;-71
2023/05/04 11:52:48;;;;;;;6.82;2.28;;;21.20;84.90;;;;;;5088619;28;20081;-70
2023/05/04 11:55:26;;;;;;;5.95;2.17;;;21.20;83.60;;;;;;5081881;28;20480;-71
2023/05/04 11:57:59;;;;;;;2.30;1.33;;;21.20;85.00;;;;;;5083666;28;20039;-68
2023/05/04 12:00:44;;;;;;;3.30;1.40;;;21.20;83.60;;;;;;5084560;28;20036;-70
2023/05/04 12:03:14;;;;;;;3.97;1.88;;;21.20;82.60;;;;;;5082891;28;20031;-70
2023/05/04 12:05:51;;;;;;;4.28;1.95;;;21.10;82.70;;;;;;5090095;28;20047;-69
2023/05/04 12:08:31;;;;;;;4.65;2.33;;;21.20;83.10;;;;;;5087111;28;20036;-71
2023/05/04 12:11:12;;;;;;;4.88;1.95;;;21.10;83.90;;;;;;5081342;28;20163;-71
2023/05/04 12:13:39;;;;;;;4.45;1.83;;;21.10;83.00;;;;;;5083947;28;20138;-71
2023/05/04 12:16:20;;;;;;;7.38;2.70;;;21.00;83.90;;;;;;5084787;28;20060;-71
2023/05/04 12:18:47;;;;;;;4.38;1.85;;;21.00;82.90;;;;;;5087697;28;20059;-72
2023/05/04 12:21:18;;;;;;;5.30;2.15;;;20.80;83.70;;;;;;5085149;28;20067;-71
2023/05/04 12:23:47;;;;;;;3.60;2.00;;;20.80;84.00;;;;;;5086488;28;20054;-71
2023/05/04 12:26:13;;;;;;;6.70;2.35;;;20.80;85.70;;;;;;5081017;28;20539;-72
2023/05/04 12:28:42;;;;;;;5.95;2.17;;;20.80;85.20;;;;;;5089201;28;20035;-69
2023/05/04 12:31:08;;;;;;;13.55;2.55;;;20.80;86.00;;;;;;5084579;28;20058;-71
2023/05/04 12:33:34;;;;;;;8.27;3.38;;;20.90;86.10;;;;;;5084603;28;20445;-70
2023/05/04 12:36:07;;;;;;;7.63;2.88;;;20.90;84.40;;;;;;5082563;28;20044;-70
2023/05/04 12:38:33;;;;;;;5.80;2.72;;;20.90;84.40;;;;;;5086704;28;20642;-70
2023/05/04 12:41:02;;;;;;;4.80;3.03;;;21.00;84.20;;;;;;5084312;28;20432;-72
2023/05/04 12:43:27;;;;;;;5.90;2.70;;;21.00;84.70;;;;;;5084356;28;20032;-69
2023/05/04 12:45:53;;;;;;;9.50;2.95;;;21.00;85.10;;;;;;5088157;28;20118;-69
2023/05/04 12:48:20;;;;;;;10.27;2.58;;;21.00;85.40;;;;;;5084411;28;20389;-72
2023/05/04 12:50:50;;;;;;;9.10;3.15;;;21.00;86.10;;;;;;5081746;28;20032;-69
2023/05/04 12:53:16;;;;;;;5.55;2.55;;;21.10;85.60;;;;;;5086636;28;20036;-71
2023/05/04 12:55:45;;;;;;;7.32;2.58;;;21.10;86.00;;;;;;5089785;28;20151;-71
2023/05/04 12:58:11;;;;;;;5.53;2.58;;;21.10;84.70;;;;;;5080047;28;20032;-70
2023/05/04 13:00:43;;;;;;;5.45;2.85;;;21.10;84.70;;;;;;5080062;28;20067;-72